Time;durP1;ratioP1;P1;durP2;ratioP2;P2;SDS_P1;SDS_P2;PMS_P1;PMS_P2;Temp;Humidity;BMP_temperature;BMP_pressure;BME280_temperature;BME280_humidity;BME280_pressure;Samples;Min_cycle;Max_cycle;Signal;HPM_P1;HPM_P2
2024/03/08 00:00:14;;;;;;;29.83;13.48;;;;;;;1.03;100.00;101753.22;5056849;28;20032;-74
2024/03/08 00:02:40;;;;;;;29.15;13.25;;;;;;;1.03;100.00;101754.09;5074300;28;20093;-74
2024/03/08 00:05:08;;;;;;;28.80;12.30;;;;;;;1.03;100.00;101769.00;5073638;28;20035;-73
2024/03/08 00:07:35;;;;;;;27.30;13.23;;;;;;;0.94;100.00;101761.59;5073330;28;20032;-73
2024/03/08 00:10:00;;;;;;;29.52;13.43;;;;;;;0.98;100.00;101771.91;5075514;28;20149;-74
2024/03/08 00:12:26;;;;;;;31.92;12.85;;;;;;;0.97;100.00;101772.81;5075011;28;20123;-74
2024/03/08 00:14:53;;;;;;;28.05;13.18;;;;;;;0.94;100.00;101774.75;5083569;28;20036;-73
2024/03/08 00:17:18;;;;;;;24.90;12.10;;;;;;;0.89;100.00;101766.22;5071513;28;20032;-74
2024/03/08 00:19:43;;;;;;;26.17;12.40;;;;;;;0.90;100.00;101783.72;5072372;28;20055;-73
2024/03/08 00:22:11;;;;;;;25.35;11.32;;;;;;;0.84;100.00;101769.94;5073014;28;20052;-73
2024/03/08 00:24:37;;;;;;;35.95;14.38;;;;;;;0.84;100.00;101780.47;5068243;28;20042;-74
2024/03/08 00:27:04;;;;;;;27.95;11.80;;;;;;;0.81;100.00;101783.22;5062452;28;20440;-74
2024/03/08 00:29:30;;;;;;;30.40;12.55;;;;;;;0.80;100.00;101794.66;5070284;28;20028;-74
2024/03/08 00:31:55;;;;;;;30.70;14.45;;;;;;;0.78;100.00;101790.41;5072451;28;20379;-73
2024/03/08 00:34:22;;;;;;;25.88;11.80;;;;;;;0.74;100.00;101783.59;5068213;28;20127;-74
2024/03/08 00:36:48;;;;;;;28.33;12.43;;;;;;;0.67;100.00;101780.41;5066773;28;20139;-73
2024/03/08 00:39:14;;;;;;;34.65;14.88;;;;;;;0.66;100.00;101781.34;5069113;28;20042;-73
2024/03/08 00:41:39;;;;;;;33.05;14.57;;;;;;;0.59;100.00;101785.19;5078181;28;20038;-74
2024/03/08 00:44:05;;;;;;;31.48;12.52;;;;;;;0.59;100.00;101800.97;5054830;28;20017;-73
2024/03/08 00:46:31;;;;;;;32.25;12.57;;;;;;;0.60;100.00;101803.50;5067396;28;20040;-73
2024/03/08 00:48:57;;;;;;;26.77;12.50;;;;;;;0.60;100.00;101805.28;5051513;28;20078;-74
2024/03/08 00:51:22;;;;;;;28.67;12.93;;;;;;;0.57;100.00;101810.69;5068595;28;20070;-73
2024/03/08 00:53:47;;;;;;;35.17;15.20;;;;;;;0.58;100.00;101810.59;5068205;28;20028;-74
2024/03/08 00:56:13;;;;;;;35.95;14.15;;;;;;;0.43;100.00;101803.44;5061568;28;20032;-73
2024/03/08 00:58:38;;;;;;;33.85;13.73;;;;;;;0.51;100.00;101824.09;5072878;28;20035;-73
2024/03/08 01:01:04;;;;;;;33.10;13.20;;;;;;;0.58;100.00;101838.66;5061752;28;20048;-73
2024/03/08 01:03:34;;;;;;;34.08;13.15;;;;;;;0.59;100.00;101829.88;5070786;28;20135;-73
2024/03/08 01:06:01;;;;;;;31.65;13.68;;;;;;;0.59;100.00;101838.59;5066649;28;20061;-73
2024/03/08 01:08:27;;;;;;;33.08;12.63;;;;;;;0.52;100.00;101833.69;5072539;28;20624;-73
2024/03/08 01:10:53;;;;;;;33.40;14.55;;;;;;;0.56;100.00;101848.38;5070317;28;20036;-73
2024/03/08 01:13:19;;;;;;;35.88;12.95;;;;;;;0.52;100.00;101836.34;5067406;28;20036;-73
2024/03/08 01:15:45;;;;;;;40.30;15.40;;;;;;;0.51;100.00;101839.88;5071288;28;20042;-73
2024/03/08 01:18:11;;;;;;;35.30;15.07;;;;;;;0.47;100.00;101839.16;5059514;28;20125;-74
2024/03/08 01:20:36;;;;;;;33.22;14.20;;;;;;;0.49;100.00;101836.44;5075595;28;20097;-74
2024/03/08 01:23:02;;;;;;;35.85;15.65;;;;;;;0.48;100.00;101840.88;5083447;23;20052;-73
2024/03/08 01:25:27;;;;;;;34.60;14.57;;;;;;;0.37;100.00;101825.56;5071675;28;20078;-71
2024/03/08 01:27:53;;;;;;;40.40;17.55;;;;;;;0.47;100.00;101851.44;5068489;28;20500;-71
2024/03/08 01:30:19;;;;;;;36.83;16.13;;;;;;;0.49;100.00;101849.59;5073500;28;20039;-72
2024/03/08 01:32:44;;;;;;;40.10;15.88;;;;;;;0.49;100.00;101839.94;5083318;28;20032;-72
2024/03/08 01:35:10;;;;;;;41.53;17.73;;;;;;;0.54;100.00;101860.75;5072957;28;20525;-73
2024/03/08 01:37:35;;;;;;;32.05;15.73;;;;;;;0.55;100.00;101865.94;5077102;28;20032;-71
2024/03/08 01:40:02;;;;;;;38.75;15.70;;;;;;;0.56;100.00;101862.41;5073870;28;20086;-72
2024/03/08 01:42:28;;;;;;;35.05;14.57;;;;;;;0.53;100.00;101849.38;5074580;28;20047;-73
2024/03/08 01:44:54;;;;;;;33.78;15.40;;;;;;;0.54;100.00;101839.72;5074436;28;20032;-72
2024/03/08 01:47:22;;;;;;;37.80;15.13;;;;;;;0.50;100.00;101833.75;5072669;28;20028;-72
2024/03/08 01:49:49;;;;;;;39.45;15.25;;;;;;;0.51;100.00;101834.59;5072770;28;20062;-73
2024/03/08 01:52:16;;;;;;;39.83;17.48;;;;;;;0.44;100.00;101822.69;5071115;28;20071;-72
2024/03/08 01:54:42;;;;;;;42.00;18.00;;;;;;;0.46;100.00;101836.59;5075972;28;20138;-73
2024/03/08 01:57:08;;;;;;;39.92;16.80;;;;;;;0.48;100.00;101840.00;5075403;28;20516;-70
2024/03/08 01:59:33;;;;;;;43.95;15.55;;;;;;;0.45;100.00;101846.28;5078338;28;20032;-73
2024/03/08 02:02:02;;;;;;;38.58;17.75;;;;;;;0.47;100.00;101843.53;5073449;28;20360;-73
2024/03/08 02:04:30;;;;;;;43.83;17.75;;;;;;;0.52;100.00;101862.59;5074122;28;20020;-72
2024/03/08 02:06:58;;;;;;;47.58;17.50;;;;;;;0.61;100.00;101867.44;5073644;28;20032;-72
2024/03/08 02:09:24;;;;;;;41.80;17.85;;;;;;;0.62;100.00;101867.34;5074800;28;20033;-72
2024/03/08 02:11:50;;;;;;;41.70;16.80;;;;;;;0.70;100.00;101867.00;5082455;28;20311;-72
2024/03/08 02:14:16;;;;;;;;;;;;;;;0.69;100.00;101862.66;5071118;28;20025;-73
2024/03/08 02:16:42;;;;;;;52.10;19.27;;;;;;;0.70;100.00;101867.00;5076251;28;20397;-70
2024/03/08 02:19:09;;;;;;;48.40;18.73;;;;;;;0.67;100.00;101875.03;5050813;28;20032;-70
2024/03/08 02:21:35;;;;;;;43.80;19.13;;;;;;;0.71;100.00;101883.63;5076002;28;20024;-73
2024/03/08 02:24:01;;;;;;;50.70;20.75;;;;;;;0.79;100.00;101887.59;5083771;28;20074;-72
2024/03/08 02:26:27;;;;;;;50.33;19.27;;;;;;;0.82;100.00;101882.22;5077578;28;20054;-71
2024/03/08 02:28:54;;;;;;;47.92;19.42;;;;;;;0.90;100.00;101888.88;5078616;28;20539;-71
2024/03/08 02:31:19;;;;;;;41.88;19.20;;;;;;;0.89;100.00;101877.53;5084275;28;20056;-72
2024/03/08 02:33:47;;;;;;;44.85;17.83;;;;;;;0.97;100.00;101877.16;5077497;28;20463;-72
2024/03/08 02:36:13;;;;;;;44.30;18.55;;;;;;;1.00;100.00;101871.72;5075561;28;20067;-71
2024/03/08 02:38:40;;;;;;;58.15;20.30;;;;;;;0.93;100.00;101867.69;5077169;28;20066;-73
2024/03/08 02:41:06;;;;;;;50.45;19.55;;;;;;;0.88;100.00;101864.44;5083081;28;20407;-73
2024/03/08 02:43:31;;;;;;;46.30;19.33;;;;;;;0.82;100.00;101866.44;5075533;28;20376;-70
2024/03/08 02:45:56;;;;;;;42.70;18.92;;;;;;;0.81;100.00;101875.22;5075515;28;20040;-71
2024/03/08 02:48:22;;;;;;;41.22;18.95;;;;;;;1.00;100.00;101890.16;5075461;28;20036;-71
2024/03/08 02:50:48;;;;;;;44.58;18.45;;;;;;;0.90;100.00;101873.09;5076343;28;20084;-70
2024/03/08 02:53:14;;;;;;;47.17;17.42;;;;;;;0.92;100.00;101869.47;5074996;28;20029;-73
2024/03/08 02:55:41;;;;;;;46.33;20.05;;;;;;;1.02;100.00;101876.00;5074523;28;20035;-73
2024/03/08 02:58:09;;;;;;;50.55;18.42;;;;;;;1.04;100.00;101865.41;5072845;28;20039;-73
2024/03/08 03:00:35;;;;;;;47.83;18.98;;;;;;;1.00;100.00;101861.22;5081061;28;20036;-72
2024/03/08 03:03:02;;;;;;;39.50;18.13;;;;;;;0.98;100.00;101863.94;5083519;28;20051;-73
2024/03/08 03:05:29;;;;;;;44.90;17.48;;;;;;;1.11;100.00;101866.81;5067752;28;20028;-72
2024/03/08 03:07:55;;;;;;;49.30;18.05;;;;;;;0.90;100.00;101849.44;5075879;28;20073;-73
2024/03/08 03:10:21;;;;;;;40.13;18.50;;;;;;;0.88;100.00;101861.81;5074914;28;20036;-72
2024/03/08 03:12:48;;;;;;;37.38;17.63;;;;;;;0.89;100.00;101863.50;5084348;28;20024;-71
2024/03/08 03:15:14;;;;;;;43.50;18.58;;;;;;;0.98;100.00;101873.59;5063482;28;20398;-72
2024/03/08 03:17:42;;;;;;;;;;;;;;;1.01;100.00;101870.81;5077563;28;20063;-72
2024/03/08 03:20:13;;;;;;;46.63;19.95;;;;;;;1.11;100.00;101872.09;5071372;28;20342;-72
2024/03/08 03:22:40;;;;;;;45.17;18.00;;;;;;;1.11;100.00;101861.56;5069165;28;20024;-73
2024/03/08 03:25:07;;;;;;;46.40;18.40;;;;;;;1.10;100.00;101864.25;5079453;28;20033;-73
2024/03/08 03:27:33;;;;;;;40.05;17.23;;;;;;;1.18;100.00;101867.38;5070170;28;20040;-73
2024/03/08 03:29:58;;;;;;;44.55;19.00;;;;;;;1.14;100.00;101861.41;5070099;28;20448;-72
2024/03/08 03:32:23;;;;;;;50.60;19.30;;;;;;;1.27;100.00;101859.88;5077810;28;20040;-73
2024/03/08 03:34:52;;;;;;;47.60;17.52;;;;;;;1.14;100.00;101855.28;5076087;28;20102;-73
2024/03/08 03:37:21;;;;;;;38.05;17.00;;;;;;;1.11;100.00;101845.78;5072788;28;20036;-73
2024/03/08 03:39:49;;;;;;;47.97;18.27;;;;;;;1.20;100.00;101850.59;5076327;28;20028;-71
2024/03/08 03:42:18;;;;;;;43.35;17.98;;;;;;;1.26;100.00;101857.31;5072745;28;20047;-72
2024/03/08 03:44:48;;;;;;;46.10;19.00;;;;;;;1.30;100.00;101853.63;5068310;28;20086;-73
2024/03/08 03:47:17;;;;;;;42.10;17.08;;;;;;;1.30;100.00;101852.78;5072571;28;20051;-73
2024/03/08 03:49:42;;;;;;;51.25;19.10;;;;;;;1.01;100.00;101823.50;5076290;28;20923;-70
2024/03/08 03:52:08;;;;;;;42.40;18.20;;;;;;;1.16;100.00;101849.03;5072733;28;20037;-71
2024/03/08 03:54:34;;;;;;;44.83;19.60;;;;;;;1.27;100.00;101857.25;5073805;28;20495;-71
2024/03/08 03:57:00;;;;;;;56.35;20.23;;;;;;;1.20;100.00;101842.69;5073315;28;20024;-73
2024/03/08 03:59:27;;;;;;;45.53;18.70;;;;;;;1.35;100.00;101856.03;5065791;28;20119;-72
2024/03/08 04:01:54;;;;;;;45.85;19.02;;;;;;;1.11;100.00;101818.63;5074847;28;20030;-70
2024/03/08 04:04:19;;;;;;;49.72;20.33;;;;;;;1.07;100.00;101828.44;5078217;28;20036;-73
2024/03/08 04:06:45;;;;;;;50.55;22.77;;;;;;;1.22;100.00;101838.22;5072201;28;20054;-73
2024/03/08 04:09:12;;;;;;;44.25;19.52;;;;;;;1.11;100.00;101827.38;5072546;28;20028;-72
2024/03/08 04:11:38;;;;;;;51.10;21.35;;;;;;;1.01;100.00;101818.22;5071670;28;20051;-70
2024/03/08 04:14:05;;;;;;;53.03;21.98;;;;;;;1.27;100.00;101838.00;5076208;28;20029;-73
2024/03/08 04:16:31;;;;;;;53.78;23.10;;;;;;;1.38;100.00;101837.44;5073895;28;20070;-72
2024/03/08 04:18:57;;;;;;;52.58;20.92;;;;;;;1.37;100.00;101831.34;5082073;28;20031;-72
2024/03/08 04:21:22;;;;;;;;;;;;;;;1.37;100.00;101828.69;5073297;28;20024;-73
2024/03/08 04:23:48;;;;;;;47.47;19.27;;;;;;;1.37;100.00;101825.22;5074534;28;20286;-73
2024/03/08 04:26:13;;;;;;;43.95;22.33;;;;;;;1.47;100.00;101824.69;5070917;28;20099;-72
2024/03/08 04:28:39;;;;;;;52.30;21.75;;;;;;;1.40;100.00;101817.16;5073934;28;20044;-73
2024/03/08 04:31:05;;;;;;;;;;;;;;;1.56;100.00;101820.72;5072849;28;20107;-73
2024/03/08 04:33:30;;;;;;;49.13;19.65;;;;;;;1.56;100.00;101815.47;5071011;28;20007;-73
2024/03/08 04:35:56;;;;;;;54.08;20.40;;;;;;;1.31;100.00;101796.56;5069932;28;20479;-73
2024/03/08 04:38:22;;;;;;;55.47;22.85;;;;;;;1.41;100.00;101803.94;5071074;28;20035;-73
2024/03/08 04:40:48;;;;;;;53.55;24.58;;;;;;;1.53;100.00;101807.72;5074214;28;20044;-70
2024/03/08 04:43:14;;;;;;;42.92;19.65;;;;;;;1.35;100.00;101784.97;5069826;28;20146;-73
2024/03/08 04:45:42;;;;;;;54.45;20.98;;;;;;;1.33;100.00;101794.72;5072498;28;20118;-72
2024/03/08 04:48:08;;;;;;;44.13;20.67;;;;;;;1.24;100.00;101783.75;5075850;28;20719;-71
2024/03/08 04:50:34;;;;;;;50.92;20.92;;;;;;;1.36;100.00;101791.94;5073014;28;20055;-73
2024/03/08 04:52:59;;;;;;;59.42;21.95;;;;;;;1.40;100.00;101796.13;5072273;28;20036;-73
2024/03/08 04:55:24;;;;;;;51.15;21.38;;;;;;;1.48;100.00;101791.34;5069314;28;20587;-73
2024/03/08 04:57:50;;;;;;;46.85;21.73;;;;;;;1.51;100.00;101785.91;5063380;28;20098;-73
2024/03/08 05:00:16;;;;;;;51.53;23.40;;;;;;;1.55;100.00;101779.56;5068642;28;20508;-73
2024/03/08 05:02:41;;;;;;;56.38;22.13;;;;;;;1.49;100.00;101766.69;5071244;28;20273;-73
2024/03/08 05:05:12;;;;;;;46.88;20.30;;;;;;;1.48;100.00;101765.00;5080284;28;20265;-71
2024/03/08 05:07:38;;;;;;;52.75;22.25;;;;;;;1.41;100.00;101761.84;5083574;28;20032;-71
2024/03/08 05:10:03;;;;;;;57.13;22.50;;;;;;;1.48;100.00;101772.91;5081116;28;20526;-72
2024/03/08 05:12:29;;;;;;;52.85;22.83;;;;;;;1.37;100.00;101757.66;5067956;28;20044;-73
2024/03/08 05:14:55;;;;;;;53.08;21.33;;;;;;;1.50;100.00;101768.41;5072855;28;20094;-73
2024/03/08 05:17:20;;;;;;;;;;;;;;;1.51;100.00;101762.22;5064178;28;20056;-73
2024/03/08 05:19:45;;;;;;;48.85;22.05;;;;;;;1.43;100.00;101761.78;5071265;28;20338;-73
2024/03/08 05:22:11;;;;;;;54.38;22.50;;;;;;;1.41;100.00;101759.22;5068388;28;20421;-73
2024/03/08 05:24:36;;;;;;;60.17;24.35;;;;;;;1.34;100.00;101751.72;5073383;28;20043;-73
2024/03/08 05:27:03;;;;;;;51.67;23.08;;;;;;;1.26;100.00;101752.97;5076072;28;20111;-70
2024/03/08 05:29:29;;;;;;;55.28;23.05;;;;;;;1.29;100.00;101756.34;5071909;28;20475;-72
2024/03/08 05:31:55;;;;;;;49.22;22.30;;;;;;;1.25;100.00;101759.13;5072650;28;20074;-73
2024/03/08 05:34:21;;;;;;;55.05;25.15;;;;;;;1.01;100.00;101750.69;5069843;28;20052;-71
2024/03/08 05:36:50;;;;;;;59.22;23.73;;;;;;;1.08;100.00;101776.69;5076073;28;20032;-71
2024/03/08 05:39:17;;;;;;;59.70;23.77;;;;;;;1.17;100.00;101790.25;5063057;28;20058;-72
2024/03/08 05:41:43;;;;;;;57.22;23.83;;;;;;;1.39;100.00;101803.16;5049885;28;20028;-71
2024/03/08 05:44:09;;;;;;;57.20;24.80;;;;;;;1.36;100.00;101782.28;5074684;28;20078;-73
2024/03/08 05:46:35;;;;;;;51.83;24.30;;;;;;;1.44;100.00;101784.50;5072279;28;20021;-73
2024/03/08 05:49:05;;;;;;;62.20;25.27;;;;;;;1.51;100.00;101779.78;5080976;28;20046;-73
2024/03/08 05:51:34;;;;;;;56.92;24.33;;;;;;;1.33;100.00;101763.16;5070518;28;20032;-72
2024/03/08 05:54:03;;;;;;;55.63;23.20;;;;;;;1.48;100.00;101775.53;5077096;28;20039;-70
2024/03/08 05:56:29;;;;;;;61.83;25.33;;;;;;;1.51;100.00;101762.22;5079968;28;20514;-72
2024/03/08 05:58:55;;;;;;;60.35;24.45;;;;;;;1.53;100.00;101760.34;5071156;28;20085;-73
2024/03/08 06:01:21;;;;;;;51.83;23.52;;;;;;;1.49;100.00;101750.91;5071022;28;20522;-72
2024/03/08 06:03:48;;;;;;;66.00;25.13;;;;;;;1.56;100.00;101754.91;5070574;28;20032;-71
2024/03/08 06:06:15;;;;;;;55.40;24.35;;;;;;;1.56;100.00;101741.75;5074541;28;20024;-73
2024/03/08 06:08:42;;;;;;;54.05;24.20;;;;;;;1.53;100.00;101741.09;5070542;28;20042;-72
2024/03/08 06:11:08;;;;;;;52.15;22.65;;;;;;;1.60;100.00;101740.69;5074269;28;20028;-73
2024/03/08 06:13:34;;;;;;;52.35;23.13;;;;;;;1.64;100.00;101739.59;5076940;28;20029;-73
2024/03/08 06:16:00;;;;;;;53.25;24.20;;;;;;;1.63;100.00;101726.50;5056092;28;20063;-73
2024/03/08 06:18:26;;;;;;;61.35;23.45;;;;;;;1.66;100.00;101724.56;5069307;28;20051;-73
2024/03/08 06:20:52;;;;;;;59.33;25.15;;;;;;;1.38;100.00;101711.13;5074186;28;20880;-71
2024/03/08 06:23:18;;;;;;;56.67;24.38;;;;;;;1.47;100.00;101726.44;5073253;28;20032;-73
2024/03/08 06:25:44;;;;;;;57.85;24.58;;;;;;;1.45;100.00;101723.03;5076238;28;20120;-73
2024/03/08 06:28:10;;;;;;;55.30;23.67;;;;;;;1.63;100.00;101737.88;5077283;28;20029;-73
2024/03/08 06:30:35;;;;;;;67.30;26.27;;;;;;;1.69;100.00;101742.84;5074733;28;20082;-73
2024/03/08 06:33:01;;;;;;;53.08;23.55;;;;;;;1.65;100.00;101725.50;5084043;28;20040;-72
2024/03/08 06:35:26;;;;;;;56.55;24.63;;;;;;;1.68;100.00;101730.59;5072715;28;20032;-73
2024/03/08 06:37:51;;;;;;;58.83;26.77;;;;;;;1.79;100.00;101739.72;5072448;28;20024;-72
2024/03/08 06:40:17;;;;;;;50.28;23.33;;;;;;;1.72;100.00;101726.03;5068818;28;20499;-70
2024/03/08 06:42:43;;;;;;;53.28;24.15;;;;;;;1.50;100.00;101705.25;5072185;28;20749;-72
2024/03/08 06:45:09;;;;;;;47.67;22.52;;;;;;;1.65;100.00;101708.84;5069184;28;20556;-72
2024/03/08 06:47:35;;;;;;;58.72;24.48;;;;;;;1.65;100.00;101708.84;5072351;28;20029;-71
2024/03/08 06:50:01;;;;;;;52.33;24.95;;;;;;;1.77;100.00;101723.13;5073930;28;20035;-71
2024/03/08 06:52:27;;;;;;;53.88;25.17;;;;;;;1.77;100.00;101712.63;5080642;28;20439;-71
2024/03/08 06:54:52;;;;;;;58.75;25.13;;;;;;;1.59;100.00;101696.88;5075134;28;20043;-71
2024/03/08 06:57:20;;;;;;;57.85;27.35;;;;;;;1.40;100.00;101691.69;5077906;28;20037;-72
2024/03/08 06:59:45;;;;;;;60.20;26.05;;;;;;;1.59;100.00;101719.69;5075103;28;20024;-72
2024/03/08 07:02:11;;;;;;;58.30;25.40;;;;;;;1.79;100.00;101716.03;5071517;28;20039;-73
2024/03/08 07:04:37;;;;;;;59.33;26.35;;;;;;;1.91;100.00;101720.63;5072998;28;20940;-73
2024/03/08 07:07:09;;;;;;;56.20;24.95;;;;;;;1.97;100.00;101714.19;5076971;28;20043;-73
2024/03/08 07:09:35;;;;;;;55.47;23.77;;;;;;;2.10;100.00;101694.97;5079371;28;20051;-72
2024/03/08 07:12:01;;;;;;;50.80;23.80;;;;;;;2.04;100.00;101674.25;5073831;28;20047;-73
2024/03/08 07:14:27;;;;;;;55.95;24.00;;;;;;;2.19;100.00;101688.34;5072087;28;20040;-71
2024/03/08 07:16:52;;;;;;;49.83;25.50;;;;;;;2.34;100.00;101681.34;5073854;28;20024;-72
2024/03/08 07:19:19;;;;;;;51.13;23.60;;;;;;;2.84;100.00;101704.00;5071007;28;20071;-72
2024/03/08 07:21:44;;;;;;;49.15;22.33;;;;;;;3.23;100.00;101697.31;5073295;28;20040;-73
2024/03/08 07:26:49;;;;;;;47.53;22.60;;;;;;;2.31;100.00;101570.84;5087405;28;20047;-74
2024/03/08 07:29:15;;;;;;;39.95;19.58;;;;;;;3.05;100.00;101683.41;5082446;28;20118;-71
2024/03/08 07:34:24;;;;;;;44.08;22.02;;;;;;;3.38;100.00;101590.78;5083639;28;20525;-72
2024/03/08 07:36:50;;;;;;;45.08;21.50;;;;;;;3.05;100.00;101513.72;5083342;28;20052;-72
2024/03/08 07:39:16;;;;;;;45.00;21.45;;;;;;;2.74;100.00;101489.25;5075795;28;20111;-73
2024/03/08 07:41:41;;;;;;;46.88;23.02;;;;;;;2.72;100.00;101493.75;5085719;28;20154;-73
2024/03/08 07:44:07;;;;;;;44.53;20.57;;;;;;;3.00;100.00;101516.66;5087322;28;20482;-73
2024/03/08 07:46:36;;;;;;;44.88;20.17;;;;;;;3.03;100.00;101499.78;5086931;28;20296;-72
2024/03/08 07:49:02;;;;;;;38.92;18.95;;;;;;;3.73;100.00;101521.69;5086779;28;20447;-73
2024/03/08 07:51:28;;;;;;;41.30;21.67;;;;;;;3.98;100.00;101461.94;5082573;28;20026;-72
2024/03/08 07:53:54;;;;;;;45.55;19.98;;;;;;;3.10;100.00;101325.16;5086949;28;20024;-71
2024/03/08 07:56:21;;;;;;;47.38;22.30;;;;;;;2.81;100.00;101328.81;5080804;28;20032;-71
2024/03/08 07:58:47;;;;;;;45.85;21.75;;;;;;;3.19;100.00;101428.44;5085273;28;20035;-73
2024/03/08 08:01:17;;;;;;;44.13;23.67;;;;;;;3.91;100.00;101471.25;5086849;28;20039;-72
2024/03/08 08:03:42;;;;;;;40.50;21.45;;;;;;;3.97;100.00;101383.66;5086729;28;20093;-73
2024/03/08 08:06:08;;;;;;;41.50;22.08;;;;;;;4.68;100.00;101398.09;5077026;28;20430;-72
2024/03/08 08:08:33;;;;;;;40.72;21.45;;;;;;;4.97;100.00;101318.47;5086193;28;20482;-71
2024/03/08 08:10:59;;;;;;;40.97;18.93;;;;;;;4.13;100.00;101172.88;5084329;28;20040;-72
2024/03/08 08:13:24;;;;;;;39.03;20.90;;;;;;;4.54;100.00;101245.72;5086477;28;20031;-73
2024/03/08 08:15:50;;;;;;;41.58;20.50;;;;;;;4.78;100.00;101136.44;5078084;28;20024;-71
2024/03/08 08:18:15;;;;;;;37.83;18.90;;;;;;;4.74;100.00;101010.66;5079936;28;20435;-72
2024/03/08 08:20:41;;;;;;;44.33;20.05;;;;;;;4.46;100.00;100900.88;5086183;28;20043;-71
2024/03/08 08:23:06;;;;;;;37.57;19.77;;;;;;;4.37;100.00;100870.69;5062598;28;20035;-71
2024/03/08 08:25:34;;;;;;;39.87;19.50;;;;;;;3.58;100.00;100693.63;5075086;28;20794;-74
2024/03/08 08:27:59;;;;;;;38.88;18.67;;;;;;;4.55;100.00;100940.66;5085674;28;20073;-72
2024/03/08 08:30:25;;;;;;;35.45;19.13;;;;;;;4.85;100.00;100912.78;5069834;28;20024;-73
2024/03/08 08:32:50;;;;;;;36.77;18.87;;;;;;;5.03;100.00;100845.16;5077696;28;20110;-71
2024/03/08 08:35:16;;;;;;;39.28;18.35;;;;;;;5.21;100.00;100823.44;5078366;28;20655;-72
2024/03/08 08:37:41;;;;;;;34.03;18.48;;;;;;;4.67;100.00;100653.22;5070062;28;20051;-73
2024/03/08 08:40:14;;;;;;;38.00;18.17;;;;;;;4.70;100.00;100723.53;5079466;28;20490;-74
2024/03/08 08:42:40;;;;;;;32.20;17.40;;;;;;;4.34;100.00;100564.34;5067095;28;20279;-72
2024/03/08 08:45:09;;;;;;;30.13;16.65;;;;;;;5.38;100.00;100846.72;5065685;28;20034;-72
2024/03/08 08:47:38;;;;;;;36.17;17.23;;;;;;;6.17;100.00;100736.78;5063926;28;20028;-72
2024/03/08 08:50:07;;;;;;;43.28;20.55;;;;;;;5.25;100.00;100359.00;5080671;28;20051;-74
2024/03/08 08:52:32;;;;;;;37.60;19.63;;;;;;;4.42;100.00;100538.94;5077702;28;20039;-72
2024/03/08 08:54:58;;;;;;;39.75;20.60;;;;;;;3.84;100.00;100566.63;5066177;28;20036;-72
2024/03/08 08:57:23;;;;;;;40.25;20.20;;;;;;;2.91;100.00;100610.78;5067861;28;20068;-73
2024/03/08 08:59:49;;;;;;;45.17;18.50;;;;;;;2.86;100.00;100866.09;5064329;28;20410;-71
2024/03/08 09:02:16;;;;;;;39.92;19.30;;;;;;;4.14;100.00;101152.56;5073823;28;20102;-72
2024/03/08 09:04:43;;;;;;;38.80;18.88;;;;;;;4.62;100.00;100997.41;5065526;28;20945;-74
2024/03/08 09:07:08;;;;;;;34.55;16.73;;;;;;;4.97;100.00;100845.66;5064945;28;20082;-72
2024/03/08 09:09:34;;;;;;;35.13;18.65;;;;;;;4.54;100.00;100737.16;5064100;28;20036;-72
2024/03/08 09:12:00;;;;;;;37.03;19.23;;;;;;;4.39;100.00;100712.81;5070247;28;20037;-73
2024/03/08 09:14:26;;;;;;;;;;;;;;;4.46;100.00;100699.94;5064999;28;20110;-72
2024/03/08 09:16:51;;;;;;;41.03;17.63;;;;;;;4.48;100.00;100862.78;5065575;28;20379;-74
2024/03/08 09:19:19;;;;;;;37.85;18.20;;;;;;;4.67;100.00;100814.56;5063010;28;20036;-73
2024/03/08 09:21:44;;;;;;;38.08;17.98;;;;;;;5.39;100.00;100859.00;5065679;28;20113;-72
2024/03/08 09:24:10;;;;;;;36.08;17.23;;;;;;;4.79;100.00;100532.34;5067354;28;20036;-71
2024/03/08 09:26:35;;;;;;;34.20;17.13;;;;;;;5.75;100.00;100682.06;5065814;28;20039;-72
2024/03/08 09:29:00;;;;;;;37.30;17.55;;;;;;;5.54;100.00;100507.31;5077277;28;20039;-72
2024/03/08 09:31:26;;;;;;;33.43;16.47;;;;;;;5.54;100.00;100501.19;5068527;28;20032;-72
2024/03/08 09:33:51;;;;;;;35.63;17.43;;;;;;;4.31;100.00;100390.13;5068329;28;20838;-72
2024/03/08 09:36:17;;;;;;;38.95;18.75;;;;;;;3.91;100.00;100616.22;5078189;28;20123;-74
2024/03/08 09:38:42;;;;;;;37.90;17.95;;;;;;;4.53;100.00;100836.81;5088107;28;20036;-72
2024/03/08 09:41:10;;;;;;;35.35;17.23;;;;;;;5.72;100.00;100854.50;5076026;28;20028;-73
2024/03/08 09:43:35;;;;;;;32.25;18.20;;;;;;;5.36;100.00;100425.06;5069504;28;20032;-71
2024/03/08 09:46:03;;;;;;;36.50;17.65;;;;;;;4.79;100.00;100340.09;5069538;28;20035;-72
2024/03/08 09:48:29;;;;;;;38.60;19.20;;;;;;;4.71;100.00;100456.31;5067779;28;20546;-74
2024/03/08 09:50:55;;;;;;;42.67;19.25;;;;;;;5.43;100.00;100502.97;5076479;28;20135;-72
2024/03/08 09:53:22;;;;;;;36.90;19.77;;;;;;;5.11;100.00;100426.41;5079267;28;20027;-71
2024/03/08 09:55:49;;;;;;;32.75;17.17;;;;;;;5.36;100.00;100426.84;5068800;28;20037;-72
2024/03/08 09:58:17;;;;;;;35.95;16.45;;;;;;;5.01;100.00;100394.63;5075331;28;20032;-72
2024/03/08 10:00:43;;;;;;;36.72;19.70;;;;;;;4.07;100.00;100269.72;5069008;28;20387;-72
2024/03/08 10:03:08;;;;;;;33.22;16.55;;;;;;;4.47;100.00;100681.28;5074560;28;20110;-73
2024/03/08 10:05:34;;;;;;;33.05;16.33;;;;;;;6.28;100.00;100872.75;5070433;28;20135;-72
2024/03/08 10:08:00;;;;;;;33.08;17.25;;;;;;;5.79;100.00;100386.75;5068824;28;20115;-72
2024/03/08 10:10:26;;;;;;;38.00;16.80;;;;;;;6.93;100.00;100567.19;5081455;28;20107;-72
2024/03/08 10:12:51;;;;;;;38.45;17.55;;;;;;;6.71;100.00;100364.91;5067799;28;20518;-72
2024/03/08 10:15:17;;;;;;;35.45;16.15;;;;;;;5.99;100.00;100223.28;5082564;28;20035;-73
2024/03/08 10:17:43;;;;;;;32.15;16.98;;;;;;;6.28;100.00;100219.69;5083636;28;20124;-72
2024/03/08 10:20:16;;;;;;;36.28;18.48;;;;;;;4.89;100.00;99977.72;5067597;28;20494;-73
2024/03/08 10:22:45;;;;;;;31.83;17.20;;;;;;;5.48;100.00;100373.66;5075052;28;20037;-73
2024/03/08 10:25:11;;;;;;;36.22;17.15;;;;;;;6.26;100.00;100572.44;5079969;28;20063;-72
2024/03/08 10:27:39;;;;;;;34.97;17.55;;;;;;;7.18;100.00;100366.63;5083644;28;20558;-73
2024/03/08 10:30:10;;;;;;;37.28;18.73;;;;;;;5.90;100.00;99916.84;5067472;28;20027;-72
2024/03/08 10:32:35;;;;;;;37.33;17.13;;;;;;;6.97;100.00;100292.56;5068228;28;20032;-72
2024/03/08 10:35:01;;;;;;;30.80;16.10;;;;;;;6.55;100.00;100083.56;5080220;28;20663;-72
2024/03/08 10:37:29;;;;;;;32.08;17.38;;;;;;;6.53;100.00;100149.19;5071691;28;20079;-71
2024/03/08 10:40:15;;;;;;;35.13;16.52;;;;;;;6.91;100.00;100242.75;5066539;28;20044;-72
2024/03/08 10:42:54;;;;;;;34.03;17.15;;;;;;;6.83;100.00;100025.09;5067948;28;20044;-72
2024/03/08 10:45:30;;;;;;;35.45;17.27;;;;;;;6.14;100.00;99717.44;5067795;28;20036;-72
2024/03/08 10:48:27;;;;;;;29.73;15.85;;;;;;;6.89;100.00;100226.97;5066200;28;20033;-72
2024/03/08 10:50:54;;;;;;;33.28;16.23;;;;;;;7.25;100.00;99965.94;5066297;28;20025;-73
2024/03/08 10:53:22;;;;;;;30.27;15.07;;;;;;;6.65;100.00;99757.22;5067377;28;20395;-73
2024/03/08 10:55:53;;;;;;;26.85;15.70;;;;;;;6.49;100.00;99883.47;5067576;28;20032;-72
2024/03/08 10:58:26;;;;;;;28.60;15.00;;;;;;;6.81;100.00;99775.00;5080161;28;20422;-72
2024/03/08 11:00:53;;;;;;;32.53;17.15;;;;;;;7.07;100.00;99769.59;5066363;28;20047;-73
2024/03/08 11:03:41;;;;;;;31.73;16.17;;;;;;;6.51;100.00;99586.34;5066934;28;20033;-71
2024/03/08 11:06:08;;;;;;;31.92;15.77;;;;;;;8.28;100.00;100165.09;5066094;28;20032;-72
2024/03/08 11:08:39;;;;;;;33.17;16.92;;;;;;;8.78;100.00;99757.00;5066814;28;20090;-73
2024/03/08 11:11:04;;;;;;;29.35;15.32;;;;;;;9.18;100.00;99782.56;5083506;28;20032;-72
2024/03/08 11:13:33;;;;;;;29.65;15.30;;;;;;;9.52;100.00;99635.56;5069070;28;20032;-72